createdAt,value
2022-09-16T00:00:43.979Z,14.52
2022-09-16T00:03:11.088Z,14.42
2022-09-16T00:05:44.753Z,14.04
2022-09-16T00:08:11.305Z,14.24
2022-09-16T00:10:37.892Z,14.37
2022-09-16T00:13:04.812Z,13.68
2022-09-16T00:15:31.118Z,13.88
2022-09-16T00:17:57.155Z,14.30
2022-09-16T00:20:23.190Z,14.57
2022-09-16T00:22:49.212Z,14.37
2022-09-16T00:25:15.272Z,14.30
2022-09-16T00:27:41.310Z,14.54
2022-09-16T00:30:08.160Z,14.50
2022-09-16T00:32:34.201Z,14.57
2022-09-16T00:35:00.238Z,14.46
2022-09-16T00:37:26.503Z,14.21
2022-09-16T00:39:52.561Z,13.85
2022-09-16T00:42:18.932Z,13.50
2022-09-16T00:44:52.578Z,14.45
2022-09-16T00:47:25.698Z,14.23
2022-09-16T00:49:53.708Z,14.21
2022-09-16T00:52:19.834Z,14.47
2022-09-16T00:54:46.067Z,14.19
2022-09-16T00:57:13.610Z,13.98
2022-09-16T00:59:42.642Z,14.46
2022-09-16T01:02:11.249Z,13.93
2022-09-16T01:04:47.403Z,14.50
2022-09-16T01:07:14.389Z,14.52
2022-09-16T01:09:41.114Z,14.56
2022-09-16T01:12:07.153Z,14.10
2022-09-16T01:14:51.512Z,14.25
2022-09-16T01:17:27.503Z,14.33
2022-09-16T01:20:05.604Z,14.42
2022-09-16T01:22:56.368Z,14.43
2022-09-16T01:25:34.399Z,14.38
2022-09-16T01:28:25.217Z,14.64
2022-09-16T01:31:38.953Z,14.40
2022-09-16T01:34:18.342Z,14.52
2022-09-16T01:36:46.860Z,14.49
2022-09-16T01:39:27.866Z,13.91
2022-09-16T01:42:07.039Z,14.40
2022-09-16T01:45:06.938Z,14.26
2022-09-16T01:48:03.057Z,14.22
2022-09-16T01:50:30.429Z,14.50
2022-09-16T01:53:08.508Z,14.07
2022-09-16T01:55:38.857Z,13.94
2022-09-16T01:58:28.530Z,14.05
2022-09-16T02:01:00.304Z,12.83
2022-09-16T02:03:33.672Z,14.33
2022-09-16T02:06:05.755Z,14.13
2022-09-16T02:08:36.896Z,14.33
2022-09-16T02:11:05.829Z,14.23
2022-09-16T02:13:39.372Z,14.12
2022-09-16T02:16:13.431Z,13.97
2022-09-16T02:18:41.186Z,14.42
2022-09-16T02:21:10.981Z,14.50
2022-09-16T02:23:46.331Z,14.33
2022-09-16T02:26:15.081Z,14.38
2022-09-16T02:28:43.513Z,14.42
2022-09-16T02:31:11.477Z,14.20
2022-09-16T02:33:44.496Z,14.46
2022-09-16T02:36:13.947Z,14.15
2022-09-16T02:38:42.409Z,14.39
2022-09-16T02:41:13.859Z,14.27
2022-09-16T02:43:44.355Z,14.43
2022-09-16T02:46:25.687Z,14.47
2022-09-16T02:48:54.963Z,14.52
2022-09-16T02:51:42.617Z,14.38
2022-09-16T02:54:21.738Z,14.20
2022-09-16T02:56:47.937Z,14.13
2022-09-16T02:59:15.003Z,14.28
2022-09-16T03:01:43.978Z,14.31
2022-09-16T03:04:15.524Z,14.20
2022-09-16T03:06:41.586Z,13.89
2022-09-16T03:09:12.055Z,12.59
2022-09-16T03:12:02.904Z,14.05
2022-09-16T03:14:48.211Z,13.97
2022-09-16T03:17:29.574Z,14.28
2022-09-16T03:20:10.244Z,14.22
2022-09-16T03:22:46.977Z,14.08
2022-09-16T03:25:34.483Z,13.99
2022-09-16T03:28:08.524Z,13.74
2022-09-16T03:30:39.308Z,14.17
2022-09-16T03:33:13.887Z,14.23
2022-09-16T03:35:43.431Z,14.26
2022-09-16T03:38:10.488Z,14.26
2022-09-16T03:40:37.251Z,13.85
2022-09-16T03:43:15.329Z,14.05
2022-09-16T03:45:42.117Z,14.10
2022-09-16T03:48:09.610Z,-2.13
2022-09-16T03:50:35.741Z,14.33
2022-09-16T03:53:01.874Z,13.93
2022-09-16T03:55:28.136Z,14.23
2022-09-16T03:57:54.381Z,12.74
2022-09-16T04:00:20.672Z,14.05
2022-09-16T04:02:46.730Z,13.93
2022-09-16T04:05:12.844Z,12.58
2022-09-16T04:07:39.030Z,13.87
2022-09-16T04:10:06.270Z,13.76
2022-09-16T04:12:32.751Z,13.88
2022-09-16T04:15:00.782Z,13.87
2022-09-16T04:17:27.046Z,9.81
2022-09-16T04:19:53.060Z,14.09
2022-09-16T04:22:19.103Z,14.17
2022-09-16T04:24:45.291Z,13.14
2022-09-16T04:27:11.286Z,14.26
2022-09-16T04:29:37.305Z,14.19
2022-09-16T04:32:03.407Z,14.08
2022-09-16T04:34:31.553Z,14.17
2022-09-16T04:36:58.075Z,14.16
2022-09-16T04:39:24.121Z,13.86
2022-09-16T04:41:50.159Z,13.65
2022-09-16T04:44:16.322Z,13.64
2022-09-16T04:46:42.455Z,13.75
2022-09-16T04:49:08.567Z,13.88
2022-09-16T04:51:35.176Z,13.69
2022-09-16T04:54:01.202Z,13.65
2022-09-16T04:56:30.741Z,13.58
2022-09-16T04:58:59.822Z,13.64
2022-09-16T05:01:29.468Z,13.75
2022-09-16T05:03:58.127Z,12.53
2022-09-16T05:06:29.704Z,13.76
2022-09-16T05:08:56.279Z,13.89
2022-09-16T05:11:27.167Z,13.30
2022-09-16T05:13:54.387Z,13.39
2022-09-16T05:16:21.854Z,13.71
2022-09-16T05:18:49.681Z,13.66
2022-09-16T05:21:18.462Z,8.83
2022-09-16T05:23:47.049Z,13.63
2022-09-16T05:26:18.812Z,13.71
2022-09-16T05:28:45.408Z,13.86
2022-09-16T05:31:18.553Z,13.57
2022-09-16T05:33:47.118Z,13.52
2022-09-16T05:36:16.061Z,14.04
2022-09-16T05:38:54.354Z,13.62
2022-09-16T05:41:28.915Z,13.97
2022-09-16T05:43:57.994Z,13.89
2022-09-16T05:46:24.123Z,14.03
2022-09-16T05:48:50.178Z,14.01
2022-09-16T05:51:20.666Z,13.95
2022-09-16T05:53:48.160Z,13.93
2022-09-16T05:56:15.101Z,13.15
2022-09-16T05:58:41.205Z,13.34
2022-09-16T06:01:10.060Z,13.45
2022-09-16T06:03:37.955Z,12.85
2022-09-16T06:06:22.231Z,13.25
2022-09-16T06:08:48.899Z,13.44
2022-09-16T06:11:15.129Z,12.67
2022-09-16T06:13:41.164Z,13.21
2022-09-16T06:16:08.747Z,13.12
2022-09-16T06:18:35.985Z,13.00
2022-09-16T06:21:11.523Z,12.71
2022-09-16T06:23:39.267Z,12.88
2022-09-16T06:26:08.157Z,13.22
2022-09-16T06:28:34.713Z,11.88
2022-09-16T06:31:07.331Z,13.22
2022-09-16T06:33:34.559Z,13.45
2022-09-16T06:36:05.242Z,13.34
2022-09-16T06:38:31.455Z,13.46
2022-09-16T06:40:59.182Z,13.52
2022-09-16T06:43:25.255Z,13.29
2022-09-16T06:45:51.439Z,13.60
2022-09-16T06:48:17.708Z,13.29
2022-09-16T06:50:43.846Z,13.47
2022-09-16T06:53:09.847Z,13.10
2022-09-16T06:55:35.955Z,13.72
2022-09-16T06:58:02.183Z,13.70
2022-09-16T07:00:28.255Z,14.47
2022-09-16T07:02:54.368Z,14.32
2022-09-16T07:05:20.393Z,14.77
2022-09-16T07:07:46.487Z,14.85
2022-09-16T07:10:12.553Z,14.95
2022-09-16T07:12:38.527Z,13.79
2022-09-16T07:15:04.934Z,13.72
2022-09-16T07:17:31.057Z,14.28
2022-09-16T07:19:57.041Z,14.19
2022-09-16T07:22:23.151Z,14.00
2022-09-16T07:24:49.133Z,14.51
2022-09-16T07:27:15.121Z,14.14
2022-09-16T07:29:41.170Z,13.79
2022-09-16T07:32:07.826Z,14.25
2022-09-16T07:34:33.810Z,14.37
2022-09-16T07:36:59.782Z,14.43
2022-09-16T07:39:26.414Z,14.50
2022-09-16T07:41:52.454Z,14.26
2022-09-16T07:44:19.850Z,13.93
2022-09-16T07:46:46.208Z,13.91
2022-09-16T07:49:13.524Z,14.48
2022-09-16T07:51:39.630Z,14.53
2022-09-16T07:54:08.180Z,14.60
2022-09-16T07:56:36.440Z,14.83
2022-09-16T07:59:06.559Z,14.64
2022-09-16T08:01:33.489Z,14.39
2022-09-16T08:04:00.682Z,14.38
2022-09-16T08:06:29.003Z,14.22
2022-09-16T08:08:59.747Z,14.27
2022-09-16T08:11:31.847Z,14.39
2022-09-16T08:13:59.193Z,14.37
2022-09-16T08:16:25.430Z,14.30
2022-09-16T08:18:54.267Z,14.28
2022-09-16T08:21:22.491Z,13.55
2022-09-16T08:23:48.849Z,13.89
2022-09-16T08:26:15.631Z,15.06
2022-09-16T08:28:51.350Z,15.17
2022-09-16T08:31:29.035Z,15.17
2022-09-16T08:33:55.707Z,15.15
2022-09-16T08:36:23.378Z,14.89
2022-09-16T08:38:52.651Z,15.33
2022-09-16T08:41:50.107Z,15.33
2022-09-16T08:44:37.874Z,11.74
2022-09-16T08:47:28.431Z,15.10
2022-09-16T08:49:55.434Z,15.22
2022-09-16T08:52:37.166Z,15.03
2022-09-16T08:55:10.168Z,14.82
2022-09-16T08:57:51.675Z,15.14
2022-09-16T09:00:19.385Z,14.99
2022-09-16T09:03:22.838Z,14.67
2022-09-16T09:05:56.972Z,14.66
2022-09-16T09:08:31.129Z,14.54
2022-09-16T09:11:15.691Z,14.88
2022-09-16T09:13:54.953Z,15.04
2022-09-16T09:16:27.828Z,14.72
2022-09-16T09:19:08.956Z,14.21
2022-09-16T09:22:01.489Z,14.37
2022-09-16T09:24:44.537Z,14.83
2022-09-16T09:27:16.405Z,15.06
2022-09-16T09:30:01.262Z,15.52
2022-09-16T09:32:55.212Z,15.03
2022-09-16T09:35:24.441Z,15.22
2022-09-16T09:38:08.398Z,14.95
2022-09-16T09:40:39.622Z,14.58
2022-09-16T09:43:18.546Z,14.88
2022-09-16T09:45:56.881Z,15.11
2022-09-16T09:48:28.562Z,14.68
2022-09-16T09:50:54.579Z,14.98
2022-09-16T09:53:28.022Z,15.10
2022-09-16T09:56:04.209Z,14.92
2022-09-16T09:58:59.591Z,14.74
2022-09-16T10:01:25.673Z,15.16
2022-09-16T10:03:53.802Z,16.00
2022-09-16T10:06:26.124Z,15.69
2022-09-16T10:08:54.403Z,15.69
2022-09-16T10:11:22.700Z,15.54
2022-09-16T10:13:51.459Z,15.29
2022-09-16T10:16:20.648Z,15.27
2022-09-16T10:19:14.627Z,15.15
2022-09-16T10:21:46.893Z,14.67
2022-09-16T10:24:32.706Z,16.27
2022-09-16T10:27:00.071Z,16.49
2022-09-16T10:29:26.350Z,15.78
2022-09-16T10:31:52.837Z,15.59
2022-09-16T10:34:31.643Z,16.80
2022-09-16T10:37:13.614Z,16.60
2022-09-16T10:39:43.311Z,17.64
2022-09-16T10:42:24.080Z,17.47
2022-09-16T10:44:52.351Z,17.69
2022-09-16T10:47:24.426Z,17.49
2022-09-16T10:49:57.000Z,18.50
2022-09-16T10:52:25.206Z,18.33
2022-09-16T10:54:52.022Z,18.26
2022-09-16T10:57:32.340Z,18.17
2022-09-16T11:00:11.036Z,16.58
2022-09-16T11:02:46.755Z,16.54
2022-09-16T11:05:16.510Z,18.14
2022-09-16T11:07:55.454Z,18.18
2022-09-16T11:10:24.344Z,18.68
2022-09-16T11:13:05.619Z,18.94
2022-09-16T11:15:35.514Z,18.17
2022-09-16T11:18:14.448Z,18.14
2022-09-16T11:21:04.684Z,18.23
2022-09-16T11:24:07.745Z,17.70
2022-09-16T11:26:55.315Z,17.84
2022-09-16T11:29:55.723Z,18.25
2022-09-16T11:32:51.017Z,18.88
2022-09-16T11:35:40.707Z,18.97
2022-09-16T11:38:46.147Z,17.97
2022-09-16T11:41:21.610Z,17.37
2022-09-16T11:44:19.776Z,17.41
2022-09-16T11:47:01.015Z,16.94
2022-09-16T11:49:57.940Z,17.42
2022-09-16T11:52:37.150Z,17.90
2022-09-16T11:55:08.715Z,18.86
2022-09-16T11:57:37.933Z,18.71
2022-09-16T12:00:12.966Z,17.92
2022-09-16T12:03:11.776Z,18.62
2022-09-16T12:05:52.920Z,19.31
2022-09-16T12:08:23.901Z,19.32
2022-09-16T12:11:33.968Z,19.34
2022-09-16T12:14:08.311Z,18.09
2022-09-16T12:16:40.273Z,19.70
2022-09-16T12:19:11.225Z,17.63
2022-09-16T12:21:46.423Z,18.95
2022-09-16T12:24:31.307Z,18.22
2022-09-16T12:27:25.596Z,19.34
2022-09-16T12:29:56.099Z,19.56
2022-09-16T12:32:31.278Z,19.67
2022-09-16T12:35:01.554Z,19.73
2022-09-16T12:37:32.269Z,18.83
2022-09-16T12:39:59.764Z,19.61
2022-09-16T12:42:46.794Z,19.14
2022-09-16T12:45:50.273Z,19.71
2022-09-16T12:48:35.069Z,19.97
2022-09-16T12:51:22.918Z,18.91
2022-09-16T12:54:03.311Z,16.97
2022-09-16T12:56:29.290Z,17.56
2022-09-16T12:59:01.068Z,17.88
2022-09-16T13:01:32.802Z,17.90
2022-09-16T13:04:08.538Z,18.23
2022-09-16T13:06:37.561Z,19.71
2022-09-16T13:09:24.128Z,19.32
2022-09-16T13:14:49.197Z,19.25
2022-09-16T13:17:28.780Z,19.59
2022-09-16T13:20:12.048Z,19.21
2022-09-16T13:22:40.957Z,20.49
2022-09-16T13:25:13.036Z,20.15
2022-09-16T13:27:40.206Z,20.81
2022-09-16T13:30:10.667Z,20.68
2022-09-16T13:32:51.865Z,19.56
2022-09-16T13:35:17.890Z,19.46
2022-09-16T13:37:52.437Z,19.21
2022-09-16T13:40:25.927Z,19.73
2022-09-16T13:43:13.226Z,18.18
2022-09-16T13:45:41.742Z,19.86
2022-09-16T13:48:17.896Z,19.12
2022-09-16T13:50:50.255Z,18.88
2022-09-16T13:53:23.315Z,18.76
2022-09-16T13:55:50.054Z,19.77
2022-09-16T13:58:21.996Z,19.93
2022-09-16T14:01:11.603Z,19.14
2022-09-16T14:04:04.554Z,19.49
2022-09-16T14:07:06.006Z,19.66
2022-09-16T14:09:34.795Z,18.41
2022-09-16T14:12:06.906Z,19.02
2022-09-16T14:14:50.088Z,19.67
2022-09-16T14:17:20.510Z,18.64
2022-09-16T14:19:48.718Z,20.13
2022-09-16T14:22:22.340Z,19.94
2022-09-16T14:24:53.028Z,18.32
2022-09-16T14:27:38.919Z,19.28
2022-09-16T14:30:12.940Z,19.17
2022-09-16T14:32:40.048Z,18.01
2022-09-16T14:35:15.583Z,19.83
2022-09-16T14:37:44.591Z,19.08
2022-09-16T14:40:13.489Z,17.96
2022-09-16T14:42:53.074Z,18.47
2022-09-16T14:45:19.511Z,17.98
2022-09-16T14:47:51.739Z,19.78
2022-09-16T14:50:32.530Z,19.89
2022-09-16T14:53:04.056Z,19.84
2022-09-16T14:55:34.014Z,18.69
2022-09-16T14:58:00.177Z,17.89
2022-09-16T15:00:41.875Z,18.65
2022-09-16T15:03:18.055Z,18.17
2022-09-16T15:05:46.021Z,17.71
2022-09-16T15:08:25.523Z,18.60
2022-09-16T15:10:55.326Z,17.94
2022-09-16T15:13:24.988Z,18.13
2022-09-16T15:16:12.304Z,17.82
2022-09-16T15:18:42.473Z,17.53
2022-09-16T15:21:12.327Z,17.98
2022-09-16T15:23:39.526Z,18.17
2022-09-16T15:26:14.015Z,18.30
2022-09-16T15:28:54.995Z,18.09
2022-09-16T15:31:36.165Z,17.97
2022-09-16T15:34:20.176Z,17.91
2022-09-16T15:36:54.125Z,17.69
2022-09-16T15:39:23.450Z,17.89
2022-09-16T15:41:50.542Z,17.73
2022-09-16T15:44:21.065Z,17.59
2022-09-16T15:46:47.619Z,17.02
2022-09-16T15:49:14.030Z,17.85
2022-09-16T15:51:47.511Z,17.53
2022-09-16T15:54:13.647Z,17.81
2022-09-16T15:57:03.374Z,16.86
2022-09-16T15:59:35.897Z,17.12
2022-09-16T16:02:06.811Z,17.32
2022-09-16T16:04:33.898Z,16.73
2022-09-16T16:07:02.278Z,17.28
2022-09-16T16:09:28.248Z,17.31
2022-09-16T16:12:10.795Z,16.72
2022-09-16T16:14:38.189Z,16.99
2022-09-16T16:17:13.649Z,17.07
2022-09-16T16:19:45.282Z,17.15
2022-09-16T16:22:12.355Z,16.35
2022-09-16T16:24:38.636Z,16.52
2022-09-16T16:27:05.271Z,16.29
2022-09-16T16:29:31.602Z,16.83
2022-09-16T16:32:08.499Z,16.17
2022-09-16T16:34:39.723Z,16.75
2022-09-16T16:37:06.678Z,16.47
2022-09-16T16:39:33.590Z,14.91
2022-09-16T16:42:00.039Z,16.36
2022-09-16T16:44:26.514Z,16.03
2022-09-16T16:46:54.995Z,16.56
2022-09-16T16:49:22.345Z,16.39
2022-09-16T16:51:50.513Z,16.25
2022-09-16T16:54:20.940Z,16.42
2022-09-16T16:56:48.017Z,16.01
2022-09-16T16:59:14.353Z,15.93
2022-09-16T17:01:45.313Z,14.24
2022-09-16T17:04:13.977Z,16.10
2022-09-16T17:06:39.973Z,15.91
2022-09-16T17:09:08.747Z,16.07
2022-09-16T17:11:49.677Z,16.06
2022-09-16T17:14:15.679Z,15.64
2022-09-16T17:16:41.705Z,16.11
2022-09-16T17:19:09.264Z,16.01
2022-09-16T17:21:35.705Z,16.17
2022-09-16T17:24:01.992Z,15.60
2022-09-16T17:26:28.331Z,15.70
2022-09-16T17:28:57.118Z,14.87
2022-09-16T17:31:30.700Z,15.55
2022-09-16T17:34:01.729Z,15.85
2022-09-16T17:36:39.112Z,15.68
2022-09-16T17:39:07.309Z,15.68
2022-09-16T17:41:34.232Z,15.69
2022-09-16T17:44:05.254Z,16.01
2022-09-16T17:46:31.408Z,15.93
2022-09-16T17:49:01.959Z,15.55
2022-09-16T17:51:28.178Z,15.42
2022-09-16T17:53:54.305Z,15.51
2022-09-16T17:56:20.290Z,15.38
2022-09-16T17:58:47.403Z,15.41
2022-09-16T18:01:15.843Z,15.74
2022-09-16T18:03:43.703Z,15.80
2022-09-16T18:06:16.503Z,15.45
2022-09-16T18:08:43.134Z,15.48
2022-09-16T18:11:11.229Z,15.42
2022-09-16T18:13:37.918Z,15.46
2022-09-16T18:16:11.349Z,15.58
2022-09-16T18:18:39.262Z,14.40
2022-09-16T18:21:07.502Z,15.80
2022-09-16T18:23:33.775Z,15.81
2022-09-16T18:26:10.597Z,15.47
2022-09-16T18:28:58.036Z,15.44
2022-09-16T18:31:25.009Z,15.55
2022-09-16T18:33:52.624Z,15.19
2022-09-16T18:36:21.450Z,14.41
2022-09-16T18:38:50.925Z,14.66
2022-09-16T18:41:21.917Z,15.14
2022-09-16T18:43:52.748Z,14.61
2022-09-16T18:46:26.205Z,15.18
2022-09-16T18:48:53.355Z,15.23
2022-09-16T18:51:20.815Z,15.18
2022-09-16T18:53:47.631Z,13.95
2022-09-16T18:56:16.585Z,14.62
2022-09-16T18:58:50.981Z,15.16
2022-09-16T19:01:35.862Z,14.80
2022-09-16T19:04:04.534Z,14.50
2022-09-16T19:06:33.582Z,14.79
2022-09-16T19:09:00.330Z,14.79
2022-09-16T19:11:27.226Z,14.73
2022-09-16T19:13:53.818Z,14.91
2022-09-16T19:16:19.940Z,14.53
2022-09-16T19:18:50.097Z,14.01
2022-09-16T19:21:18.101Z,14.33
2022-09-16T19:23:46.345Z,14.30
2022-09-16T19:26:14.294Z,14.68
2022-09-16T19:28:40.887Z,14.38
2022-09-16T19:31:12.314Z,14.62
2022-09-16T19:33:39.640Z,14.91
2022-09-16T19:36:10.441Z,14.62
2022-09-16T19:38:36.479Z,14.52
2022-09-16T19:41:03.374Z,14.44
2022-09-16T19:43:30.366Z,14.48
2022-09-16T19:46:03.199Z,14.77
2022-09-16T19:48:31.858Z,14.81
2022-09-16T19:50:58.097Z,14.84
2022-09-16T19:53:24.764Z,14.03
2022-09-16T19:55:56.888Z,14.70
2022-09-16T19:58:22.923Z,14.57
2022-09-16T20:00:56.361Z,14.41
2022-09-16T20:03:22.837Z,14.38
2022-09-16T20:05:49.333Z,14.23
2022-09-16T20:08:15.341Z,14.21
2022-09-16T20:10:41.345Z,14.65
2022-09-16T20:13:07.353Z,13.59
2022-09-16T20:15:33.351Z,14.35
2022-09-16T20:17:59.350Z,14.15
2022-09-16T20:20:25.490Z,14.20
2022-09-16T20:22:51.662Z,13.04
2022-09-16T20:25:23.420Z,14.36
2022-09-16T20:27:50.134Z,14.66
2022-09-16T20:30:16.221Z,14.37
2022-09-16T20:32:42.228Z,14.47
2022-09-16T20:35:08.894Z,13.93
2022-09-16T20:37:34.894Z,14.26
2022-09-16T20:40:01.250Z,13.04
2022-09-16T20:42:29.911Z,14.50
2022-09-16T20:44:55.917Z,13.19
2022-09-16T20:47:21.923Z,14.62
2022-09-16T20:49:47.934Z,14.57
2022-09-16T20:52:13.952Z,14.51
2022-09-16T20:54:39.946Z,14.28
2022-09-16T20:57:05.950Z,14.27
2022-09-16T20:59:33.280Z,13.83
2022-09-16T21:02:03.330Z,13.84
2022-09-16T21:04:29.761Z,14.49
2022-09-16T21:06:56.009Z,14.42
2022-09-16T21:09:22.493Z,14.14
2022-09-16T21:11:49.080Z,13.35
2022-09-16T21:14:16.537Z,12.90
2022-09-16T21:16:44.555Z,14.23
2022-09-16T21:19:12.065Z,14.51
2022-09-16T21:21:39.841Z,14.29
2022-09-16T21:24:06.513Z,13.99
2022-09-16T21:26:34.772Z,14.58
2022-09-16T21:29:04.116Z,14.03
2022-09-16T21:31:37.254Z,14.53
2022-09-16T21:34:08.397Z,13.71
2022-09-16T21:36:39.429Z,13.46
2022-09-16T21:39:07.070Z,13.78
2022-09-16T21:41:33.479Z,13.87
2022-09-16T21:43:59.539Z,14.27
2022-09-16T21:46:31.612Z,13.73
2022-09-16T21:49:00.478Z,13.76
2022-09-16T21:51:34.111Z,13.70
2022-09-16T21:54:05.228Z,13.54
2022-09-16T21:56:31.341Z,13.16
2022-09-16T21:58:57.672Z,14.09
2022-09-16T22:01:29.384Z,13.68
2022-09-16T22:04:07.270Z,14.12
2022-09-16T22:06:33.481Z,14.11
2022-09-16T22:09:01.320Z,14.14
2022-09-16T22:11:30.728Z,13.68
2022-09-16T22:13:59.796Z,13.55
2022-09-16T22:16:28.185Z,14.13
2022-09-16T22:18:58.664Z,13.96
2022-09-16T22:21:26.735Z,13.80
2022-09-16T22:23:52.847Z,13.84
2022-09-16T22:26:20.486Z,14.10
2022-09-16T22:28:46.628Z,13.15
2022-09-16T22:31:17.734Z,13.79
2022-09-16T22:33:45.022Z,13.56
2022-09-16T22:36:13.393Z,12.19
2022-09-16T22:38:39.421Z,13.27
2022-09-16T22:41:09.215Z,13.40
2022-09-16T22:43:35.853Z,13.39
2022-09-16T22:46:23.175Z,13.28
2022-09-16T22:48:49.961Z,13.19
2022-09-16T22:51:17.356Z,11.85
2022-09-16T22:53:43.959Z,13.60
2022-09-16T22:56:15.541Z,13.72
2022-09-16T22:58:43.487Z,13.72
2022-09-16T23:01:15.507Z,13.94
2022-09-16T23:03:42.872Z,12.71
2022-09-16T23:06:11.733Z,12.92
2022-09-16T23:08:39.649Z,13.23
2022-09-16T23:11:08.123Z,13.31
2022-09-16T23:13:35.081Z,12.92
2022-09-16T23:16:06.212Z,13.35
2022-09-16T23:18:33.615Z,13.55
2022-09-16T23:21:05.939Z,13.56
2022-09-16T23:23:38.301Z,12.99
2022-09-16T23:26:14.578Z,12.66
2022-09-16T23:28:45.043Z,13.22
2022-09-16T23:31:17.934Z,12.89
2022-09-16T23:33:48.182Z,12.94
2022-09-16T23:36:23.186Z,12.61
2022-09-16T23:38:54.419Z,13.43
2022-09-16T23:41:27.914Z,13.03
2022-09-16T23:43:59.105Z,13.17
2022-09-16T23:46:30.381Z,12.92
2022-09-16T23:48:58.269Z,12.66
2022-09-16T23:51:28.637Z,13.01
2022-09-16T23:54:00.459Z,12.90
2022-09-16T23:56:29.157Z,12.40
2022-09-16T23:58:59.841Z,11.18
